»·PEaware :: QXE2008 KSEA-KYKM

QXE2008 :: KSEA-KYKM

FLIGHT INFORMATION

Flight Status: Arrived
Operator:
Horizon Air
More flights by this operator :: More flights under this callsign
Pilot: Aaron T. (8357)
Aircraft: DEHAVILLAND DASH 8 400
(DH8D)
More flights by this aircraft type
Origin: KSEA Seattle-Tacoma Intl
United States
Destination: KYKM Yakima Air Term/Mcallister
United States
More flights between these airports :: More routes between these airports
Route: +SEA7 SEA V298 YKM
File this flight plan on PilotEdge
Remarks: RMK / SIMBRIEF
Altitude:
(Current/Filed)
15,000ft
Speed:
(Current/Filed)
321kts
Departed: 11-Jun-19 08:35 AM
Arrived: 11-Jun-19 09:04 AM
Distance/Time
Traveled:
0nm/0:29
Distance/Time
To Go:
Arrived

Flight Plot

Page will automatically refresh every two minutes.

Flight plan parsing failed; only flown route is shown


Map Options




Map Legend


Flown Route
Filed Route
Departure Airport
Arrival Airport
Navaid (VOR, NDB)
Fix

Horizontal Profiles

Position Reports

Time Latitude Longitude Heading Altitude Ground
Speed
11-Jun-19 08:00 47.446843 -122.304661 148 440ft 0kts
11-Jun-19 08:01 47.446843 -122.304661 148 440ft 0kts
11-Jun-19 08:02 47.446843 -122.304661 148 440ft 0kts
11-Jun-19 08:03 47.446843 -122.304661 148 440ft 0kts
11-Jun-19 08:04 47.446843 -122.304661 148 440ft 0kts
11-Jun-19 08:05 47.446843 -122.304661 148 440ft 0kts
11-Jun-19 08:06 47.446843 -122.304661 148 440ft 0kts
11-Jun-19 08:07 47.446843 -122.304661 148 440ft 0kts
11-Jun-19 08:08 47.446843 -122.304661 148 440ft 0kts
11-Jun-19 08:09 47.446843 -122.304661 148 440ft 0kts
11-Jun-19 08:10 47.446843 -122.304661 148 440ft 0kts
11-Jun-19 08:11 47.446843 -122.304661 148 440ft 0kts
11-Jun-19 08:12 47.446843 -122.304661 148 440ft 0kts
11-Jun-19 08:13 47.446843 -122.304661 148 440ft 0kts
11-Jun-19 08:14 47.446843 -122.304661 148 440ft 0kts
11-Jun-19 08:15 47.446843 -122.304661 148 440ft 0kts
11-Jun-19 08:16 47.446843 -122.304661 148 440ft 0kts
11-Jun-19 08:17 47.446843 -122.304661 148 440ft 0kts
11-Jun-19 08:18 47.446843 -122.304661 148 440ft 0kts
11-Jun-19 08:19 47.446843 -122.304661 148 440ft 0kts
11-Jun-19 08:20 47.446843 -122.304661 148 440ft 0kts
11-Jun-19 08:21 47.446843 -122.304661 148 440ft 0kts
11-Jun-19 08:22 47.446843 -122.304661 148 440ft 0kts
11-Jun-19 08:23 47.446843 -122.304660 148 440ft 0kts
11-Jun-19 08:24 47.446843 -122.304660 148 440ft 0kts
11-Jun-19 08:25 47.446994 -122.304799 148 440ft 2kts
11-Jun-19 08:26 47.447543 -122.305294 155 440ft 2kts
11-Jun-19 08:27 47.447964 -122.305400 180 440ft 0kts
11-Jun-19 08:28 47.447964 -122.305400 180 440ft 0kts
11-Jun-19 08:29 47.444978 -122.305442 181 440ft 21kts
11-Jun-19 08:30 47.440321 -122.306326 178 440ft 24kts
11-Jun-19 08:31 47.434447 -122.305603 180 440ft 16kts
11-Jun-19 08:32 47.431845 -122.306387 242 440ft 0kts
11-Jun-19 08:33 47.431775 -122.306605 248 440ft 7kts
11-Jun-19 08:34 47.442974 -122.308018 356 468ft 128kts
11-Jun-19 08:35 47.489333 -122.309960 0 2091ft 202kts
11-Jun-19 08:36 47.547967 -122.306183 1 4611ft 217kts
11-Jun-19 08:37 47.609026 -122.296952 31 6758ft 226kts
11-Jun-19 08:38 47.610302 -122.215747 134 8822ft 236kts
11-Jun-19 08:39 47.556422 -122.161739 144 10683ft 250kts
11-Jun-19 08:40 47.496204 -122.104386 144 12391ft 266kts
11-Jun-19 08:41 47.432743 -122.043952 145 13958ft 277kts
11-Jun-19 08:42 47.369243 -121.977013 124 14948ft 298kts
11-Jun-19 08:43 47.338280 -121.858641 103 15014ft 326kts
11-Jun-19 08:44 47.310277 -121.728022 104 15031ft 341kts
11-Jun-19 08:45 47.284962 -121.613028 104 15051ft 346kts
11-Jun-19 08:46 47.254975 -121.476896 104 15068ft 349kts
11-Jun-19 08:47 47.225315 -121.343596 104 15080ft 345kts
11-Jun-19 08:48 47.195509 -121.209784 104 15078ft 344kts
11-Jun-19 08:49 47.165908 -121.077886 105 14771ft 344kts
11-Jun-19 08:50 47.135632 -120.943680 105 13873ft 349kts
11-Jun-19 08:51 47.067332 -120.846520 151 12914ft 338kts
11-Jun-19 08:52 46.990784 -120.786084 150 11908ft 300kts
11-Jun-19 08:53 46.922084 -120.729722 149 10752ft 270kts
11-Jun-19 08:54 46.856107 -120.676282 150 9548ft 284kts
11-Jun-19 08:55 46.786941 -120.620147 148 8568ft 290kts
11-Jun-19 08:56 46.721269 -120.565226 144 7505ft 257kts
11-Jun-19 08:57 46.667469 -120.511401 108 3319ft 117kts
11-Jun-19 08:58 46.640083 -120.449876 143 4314ft 198kts
11-Jun-19 08:59 46.590935 -120.424993 177 3291ft 167kts
11-Jun-19 09:00 46.553365 -120.448380 240 2457ft 148kts
11-Jun-19 09:01 46.558378 -120.503389 289 1544ft 136kts
11-Jun-19 09:02 46.569305 -120.546698 291 1102ft 49kts
11-Jun-19 09:03 46.570363 -120.547760 111 1102ft 10kts
11-Jun-19 09:04 46.569537 -120.544566 109 1102ft 9kts
11-Jun-19 09:05 46.569783 -120.541731 358 1102ft 2kts
11-Jun-19 09:06 46.569910 -120.541736 358 1102ft 0kts
11-Jun-19 09:07 46.569910 -120.541736 358 1102ft 0kts
11-Jun-19 09:08 46.569910 -120.541736 358 1102ft 0kts
11-Jun-19 09:09 46.569910 -120.541736 358 1102ft 0kts
11-Jun-19 09:10 46.569910 -120.541736 358 1102ft 0kts
11-Jun-19 09:11 47.446842 -122.304661 148 433ft 0kts

Navigation Log

Ident Type
Flight plan parsing failed, navigation log unavailable